createdAt,value
2018-12-16T00:01:22.834Z,76.30
2018-12-16T00:03:51.138Z,76.60
2018-12-16T00:06:19.422Z,76.70
2018-12-16T00:08:47.651Z,76.90
2018-12-16T00:11:15.872Z,76.90
2018-12-16T00:13:44.348Z,76.90
2018-12-16T00:16:12.571Z,76.80
2018-12-16T00:18:40.988Z,76.80
2018-12-16T00:21:09.256Z,76.10
2018-12-16T00:23:37.482Z,76.00
2018-12-16T00:26:05.703Z,76.00
2018-12-16T00:28:34.033Z,76.20
2018-12-16T00:31:02.263Z,76.20
2018-12-16T00:33:30.643Z,76.40
2018-12-16T00:35:58.936Z,76.20
2018-12-16T00:38:27.334Z,76.80
2018-12-16T00:40:55.571Z,76.60
2018-12-16T00:43:23.835Z,75.90
2018-12-16T00:45:52.063Z,76.40
2018-12-16T00:48:20.520Z,75.90
2018-12-16T00:50:48.759Z,75.20
2018-12-16T00:53:17.091Z,75.70
2018-12-16T00:55:45.380Z,75.70
2018-12-16T00:58:13.606Z,76.10
2018-12-16T01:00:41.935Z,76.50
2018-12-16T01:03:10.387Z,76.10
2018-12-16T01:05:38.738Z,76.30
2018-12-16T01:08:06.975Z,76.30
2018-12-16T01:10:35.190Z,76.10
2018-12-16T01:13:03.422Z,75.90
2018-12-16T01:15:31.870Z,75.50
2018-12-16T01:18:00.105Z,75.30
2018-12-16T01:20:28.400Z,75.70
2018-12-16T01:22:56.616Z,75.80
2018-12-16T01:25:25.080Z,75.80
2018-12-16T01:27:53.307Z,75.20
2018-12-16T01:30:21.739Z,75.20
2018-12-16T01:32:49.997Z,75.40
2018-12-16T01:35:18.278Z,75.30
2018-12-16T01:37:46.549Z,75.40
2018-12-16T01:40:14.966Z,75.80
2018-12-16T01:42:43.190Z,76.20
2018-12-16T01:45:11.486Z,76.30
2018-12-16T01:47:39.741Z,75.60
2018-12-16T01:50:08.176Z,75.70
2018-12-16T01:52:36.407Z,76.10
2018-12-16T01:55:05.934Z,76.30
2018-12-16T01:57:34.197Z,76.50
2018-12-16T02:00:02.901Z,77.00
2018-12-16T02:02:31.375Z,77.40
2018-12-16T02:04:59.603Z,77.60
2018-12-16T02:07:27.826Z,77.30
2018-12-16T02:09:56.047Z,77.60
2018-12-16T02:12:24.375Z,77.60
2018-12-16T02:14:52.591Z,77.60
2018-12-16T02:17:20.874Z,77.20
2018-12-16T02:19:49.306Z,77.00
2018-12-16T02:22:17.588Z,76.40
2018-12-16T02:24:45.854Z,76.10
2018-12-16T02:27:14.179Z,76.40
2018-12-16T02:29:42.438Z,76.60
2018-12-16T02:32:10.787Z,76.60
2018-12-16T02:34:39.147Z,76.30
2018-12-16T02:37:07.542Z,76.10
2018-12-16T02:39:35.763Z,75.70
2018-12-16T02:42:03.995Z,75.20
2018-12-16T02:44:32.271Z,74.80
2018-12-16T02:47:00.661Z,75.00
2018-12-16T02:49:28.891Z,74.80
2018-12-16T02:51:57.121Z,74.90
2018-12-16T02:54:25.721Z,74.30
2018-12-16T02:56:54.173Z,74.20
2018-12-16T02:59:22.503Z,74.30
2018-12-16T03:01:50.823Z,74.20
2018-12-16T03:04:19.054Z,74.30
2018-12-16T03:06:47.275Z,74.30
2018-12-16T03:09:15.599Z,73.90
2018-12-16T03:11:43.817Z,73.90
2018-12-16T03:14:12.128Z,73.20
2018-12-16T03:16:40.357Z,73.60
2018-12-16T03:19:08.659Z,73.10
2018-12-16T03:21:36.927Z,73.80
2018-12-16T03:24:05.222Z,74.00
2018-12-16T03:26:36.180Z,74.20
2018-12-16T03:29:03.811Z,73.90
2018-12-16T03:31:32.130Z,73.70
2018-12-16T03:34:00.456Z,73.70
2018-12-16T03:36:28.827Z,73.50
2018-12-16T03:38:57.069Z,73.80
2018-12-16T03:41:25.386Z,74.10
2018-12-16T03:43:53.628Z,74.10
2018-12-16T03:46:21.854Z,74.10
2018-12-16T03:48:50.751Z,74.20
2018-12-16T03:51:19.092Z,74.70
2018-12-16T03:53:47.456Z,74.80
2018-12-16T03:56:15.695Z,74.80
2018-12-16T03:59:02.063Z,75.10
2018-12-16T04:01:30.376Z,74.80
2018-12-16T04:03:58.722Z,75.40
2018-12-16T04:06:27.064Z,75.30
2018-12-16T04:08:55.370Z,75.70
2018-12-16T04:11:23.613Z,75.60
2018-12-16T04:13:51.853Z,75.70
2018-12-16T04:16:20.079Z,76.00
2018-12-16T04:18:48.374Z,75.90
2018-12-16T04:21:16.851Z,76.20
2018-12-16T04:23:45.233Z,75.80
2018-12-16T04:26:13.511Z,76.00
2018-12-16T04:28:42.168Z,76.20
2018-12-16T04:31:10.383Z,75.80
2018-12-16T04:33:38.609Z,75.60
2018-12-16T04:36:06.846Z,75.20
2018-12-16T04:38:35.153Z,75.30
2018-12-16T04:41:03.476Z,75.20
2018-12-16T04:43:31.771Z,74.90
2018-12-16T04:46:00.015Z,75.00
2018-12-16T04:48:28.244Z,74.90
2018-12-16T04:50:56.464Z,75.20
2018-12-16T04:53:24.735Z,74.70
2018-12-16T04:55:52.971Z,75.20
2018-12-16T04:58:21.190Z,75.20
2018-12-16T05:00:49.444Z,75.50
2018-12-16T05:03:17.855Z,75.40
2018-12-16T05:05:46.096Z,75.20
2018-12-16T05:08:14.368Z,75.10
2018-12-16T05:10:42.640Z,74.80
2018-12-16T05:13:10.965Z,74.40
2018-12-16T05:15:39.335Z,74.40
2018-12-16T05:18:07.559Z,74.40
2018-12-16T05:20:35.885Z,74.00
2018-12-16T05:23:04.165Z,74.00
2018-12-16T05:25:32.479Z,73.90
2018-12-16T05:28:00.711Z,73.60
2018-12-16T05:30:28.951Z,73.70
2018-12-16T05:32:57.270Z,73.80
2018-12-16T05:35:25.653Z,73.50
2018-12-16T05:37:53.934Z,74.10
2018-12-16T05:40:22.163Z,74.10
2018-12-16T05:42:50.532Z,74.20
2018-12-16T05:45:18.774Z,74.50
2018-12-16T05:47:47.053Z,74.10
2018-12-16T05:50:15.820Z,74.00
2018-12-16T05:52:44.080Z,73.90
2018-12-16T05:55:12.651Z,74.10
2018-12-16T05:57:41.055Z,73.70
2018-12-16T06:00:09.536Z,74.40
2018-12-16T06:02:37.831Z,73.10
2018-12-16T06:05:06.187Z,72.60
2018-12-16T06:07:34.463Z,72.00
2018-12-16T06:10:02.758Z,72.00
2018-12-16T06:12:30.995Z,71.80
2018-12-16T06:14:59.300Z,71.60
2018-12-16T06:17:27.569Z,71.30
2018-12-16T06:19:55.853Z,71.30
2018-12-16T06:22:24.132Z,71.50
2018-12-16T06:24:52.404Z,71.80
2018-12-16T06:27:20.748Z,72.00
2018-12-16T06:29:49.396Z,72.20
2018-12-16T06:32:17.662Z,72.70
2018-12-16T06:34:45.873Z,72.60
2018-12-16T06:37:14.191Z,72.70
2018-12-16T06:39:42.471Z,72.00
2018-12-16T06:42:10.743Z,72.80
2018-12-16T06:44:39.028Z,73.40
2018-12-16T06:47:07.255Z,73.50
2018-12-16T06:49:35.569Z,74.00
2018-12-16T06:52:03.961Z,74.20
2018-12-16T06:54:32.182Z,73.80
2018-12-16T06:57:00.406Z,74.00
2018-12-16T06:59:28.622Z,74.00
2018-12-16T07:01:56.846Z,73.50
2018-12-16T07:04:25.355Z,73.60
2018-12-16T07:06:53.711Z,73.20
2018-12-16T07:09:21.994Z,73.60
2018-12-16T07:11:50.276Z,74.20
2018-12-16T07:14:18.643Z,74.00
2018-12-16T07:16:46.921Z,73.70
2018-12-16T07:19:15.149Z,74.20
2018-12-16T07:21:43.472Z,74.50
2018-12-16T07:24:11.812Z,74.80
2018-12-16T07:26:40.128Z,74.60
2018-12-16T07:29:08.443Z,74.40
2018-12-16T07:31:36.790Z,74.60
2018-12-16T07:34:05.532Z,74.70
2018-12-16T07:36:33.863Z,74.60
2018-12-16T07:39:02.167Z,74.10
2018-12-16T07:41:30.526Z,73.80
2018-12-16T07:43:58.815Z,73.50
2018-12-16T07:46:27.151Z,74.00
2018-12-16T07:48:55.701Z,73.00
2018-12-16T07:51:24.124Z,73.20
2018-12-16T07:53:52.432Z,73.10
2018-12-16T07:56:20.654Z,72.70
2018-12-16T07:58:49.059Z,72.30
2018-12-16T08:01:17.590Z,72.30
2018-12-16T08:03:45.924Z,72.40
2018-12-16T08:06:14.183Z,72.60
2018-12-16T08:08:42.667Z,72.70
2018-12-16T08:11:10.939Z,72.50
2018-12-16T08:13:39.200Z,72.40
2018-12-16T08:16:07.456Z,71.70
2018-12-16T08:18:35.679Z,71.60
2018-12-16T08:21:04.051Z,71.80
2018-12-16T08:23:32.310Z,71.80
2018-12-16T08:26:00.564Z,72.40
2018-12-16T08:28:28.788Z,75.50
2018-12-16T08:30:57.181Z,74.40
2018-12-16T08:33:25.401Z,73.30
2018-12-16T08:35:53.619Z,72.80
2018-12-16T08:38:21.882Z,72.20
2018-12-16T08:40:50.103Z,71.70
2018-12-16T08:43:18.434Z,72.00
2018-12-16T08:45:46.671Z,71.90
2018-12-16T08:48:14.991Z,71.70
2018-12-16T08:50:43.209Z,71.70
2018-12-16T08:53:11.574Z,73.10
2018-12-16T08:55:39.860Z,73.00
2018-12-16T08:58:08.091Z,73.40
2018-12-16T09:00:36.390Z,74.00
2018-12-16T09:03:04.740Z,76.50
2018-12-16T09:05:33.115Z,76.00
2018-12-16T09:08:01.391Z,75.90
2018-12-16T09:10:34.029Z,76.40
2018-12-16T09:13:00.226Z,77.00
2018-12-16T09:15:28.486Z,76.90
2018-12-16T09:17:56.711Z,77.20
2018-12-16T09:20:24.958Z,77.40
2018-12-16T09:22:53.181Z,78.00
2018-12-16T09:25:21.547Z,77.90
2018-12-16T09:27:49.854Z,78.60
2018-12-16T09:30:18.107Z,79.30
2018-12-16T09:32:46.442Z,80.00
2018-12-16T09:35:14.886Z,80.30
2018-12-16T09:37:43.169Z,80.50
2018-12-16T09:40:11.392Z,81.00
2018-12-16T09:42:39.626Z,81.50
2018-12-16T09:45:07.912Z,81.80
2018-12-16T09:47:36.406Z,81.70
2018-12-16T09:50:05.062Z,81.70
2018-12-16T09:52:33.344Z,81.90
2018-12-16T09:55:02.570Z,83.40
2018-12-16T09:57:30.886Z,82.80
2018-12-16T09:59:59.162Z,82.80
2018-12-16T10:02:27.669Z,82.80
2018-12-16T10:04:55.924Z,83.40
2018-12-16T10:07:24.446Z,83.30
2018-12-16T10:09:53.148Z,83.50
2018-12-16T10:12:21.505Z,83.60
2018-12-16T10:14:49.796Z,83.50
2018-12-16T10:17:18.090Z,83.80
2018-12-16T10:19:46.525Z,84.00
2018-12-16T10:22:14.743Z,83.70
2018-12-16T10:24:43.198Z,84.30
2018-12-16T10:27:11.563Z,84.20
2018-12-16T10:29:40.067Z,84.50
2018-12-16T10:32:08.286Z,84.50
2018-12-16T10:34:36.715Z,84.80
2018-12-16T10:37:04.969Z,84.60
2018-12-16T10:39:33.191Z,84.80
2018-12-16T10:42:01.447Z,84.90
2018-12-16T10:44:29.657Z,85.10
2018-12-16T10:46:57.888Z,85.50
2018-12-16T10:49:26.109Z,86.00
2018-12-16T10:51:54.418Z,86.90
2018-12-16T10:54:22.810Z,86.80
2018-12-16T10:56:51.240Z,87.50
2018-12-16T10:59:19.598Z,86.90
2018-12-16T11:01:47.839Z,86.80
2018-12-16T11:04:16.103Z,87.10
2018-12-16T11:06:44.365Z,86.90
2018-12-16T11:09:12.637Z,86.40
2018-12-16T11:11:40.892Z,86.30
2018-12-16T11:14:09.207Z,86.10
2018-12-16T11:16:37.502Z,86.40
2018-12-16T11:19:05.767Z,86.20
2018-12-16T11:21:34.050Z,86.10
2018-12-16T11:24:02.262Z,86.60
2018-12-16T11:26:30.564Z,86.60
2018-12-16T11:28:58.779Z,86.20
2018-12-16T11:31:27.019Z,86.20
2018-12-16T11:33:55.332Z,86.40
2018-12-16T11:36:23.601Z,86.40
2018-12-16T11:38:51.878Z,86.70
2018-12-16T11:41:20.176Z,86.80
2018-12-16T11:43:48.394Z,87.10
2018-12-16T11:46:16.823Z,87.70
2018-12-16T11:48:45.010Z,88.40
2018-12-16T11:51:13.223Z,88.60
2018-12-16T11:53:41.503Z,87.90
2018-12-16T11:56:09.817Z,87.20
2018-12-16T11:58:38.035Z,87.70
2018-12-16T12:01:06.327Z,87.20
2018-12-16T12:03:34.524Z,87.90
2018-12-16T12:06:02.790Z,87.60
2018-12-16T12:08:31.196Z,87.20
2018-12-16T12:10:59.428Z,87.60
2018-12-16T12:13:27.674Z,87.70
2018-12-16T12:15:56.041Z,87.80
2018-12-16T12:18:24.287Z,87.40
2018-12-16T12:20:52.578Z,88.00
2018-12-16T12:23:20.854Z,87.40
2018-12-16T12:25:49.331Z,87.60
2018-12-16T12:28:17.892Z,88.20
2018-12-16T12:30:46.147Z,87.60
2018-12-16T12:33:14.609Z,88.50
2018-12-16T12:35:42.855Z,88.80
2018-12-16T12:38:11.128Z,88.20
2018-12-16T12:40:39.422Z,88.30
2018-12-16T12:43:07.706Z,89.00
2018-12-16T12:45:35.992Z,89.90
2018-12-16T12:48:04.279Z,90.20
2018-12-16T12:50:32.649Z,90.10
2018-12-16T12:53:01.083Z,90.00
2018-12-16T12:55:29.345Z,90.00
2018-12-16T12:57:57.591Z,90.30
2018-12-16T13:00:25.892Z,90.20
2018-12-16T13:02:54.300Z,90.40
2018-12-16T13:05:23.451Z,90.50
2018-12-16T13:07:51.725Z,90.00
2018-12-16T13:10:20.107Z,90.00
2018-12-16T13:12:48.403Z,90.70
2018-12-16T13:15:16.782Z,90.40
2018-12-16T13:17:44.996Z,90.30
2018-12-16T13:20:13.334Z,90.30
2018-12-16T13:22:41.726Z,90.30
2018-12-16T13:25:34.730Z,90.50
2018-12-16T13:27:58.778Z,90.50
2018-12-16T13:30:27.068Z,90.50
2018-12-16T13:32:55.282Z,90.60
2018-12-16T13:35:23.533Z,90.80
2018-12-16T13:37:52.001Z,91.00
2018-12-16T13:40:20.239Z,91.10
2018-12-16T13:42:48.531Z,91.20
2018-12-16T13:45:16.820Z,91.20
2018-12-16T13:47:45.070Z,91.20
2018-12-16T13:50:13.455Z,91.20
2018-12-16T13:52:41.724Z,91.10
2018-12-16T13:55:09.970Z,90.90
2018-12-16T13:57:38.571Z,90.80
2018-12-16T14:00:07.905Z,90.80
2018-12-16T14:02:36.376Z,90.80
2018-12-16T14:05:06.367Z,90.50
2018-12-16T14:07:34.637Z,90.60
2018-12-16T14:10:03.141Z,90.50
2018-12-16T14:12:31.409Z,90.40
2018-12-16T14:14:59.652Z,90.30
2018-12-16T14:17:27.908Z,90.30
2018-12-16T14:19:56.869Z,90.30
2018-12-16T14:22:25.144Z,90.30
2018-12-16T14:24:53.375Z,90.50
2018-12-16T14:27:21.691Z,90.50
2018-12-16T14:29:49.919Z,90.40
2018-12-16T14:32:18.267Z,90.50
2018-12-16T14:34:46.511Z,90.60
2018-12-16T14:37:15.303Z,90.50
2018-12-16T14:39:43.524Z,90.50
2018-12-16T14:42:11.951Z,90.50
2018-12-16T14:44:40.370Z,90.50
2018-12-16T14:47:08.621Z,90.50
2018-12-16T14:49:36.923Z,90.40
2018-12-16T14:52:05.247Z,90.50
2018-12-16T14:54:33.721Z,90.50
2018-12-16T14:57:01.999Z,90.50
2018-12-16T14:59:30.217Z,90.50
2018-12-16T15:01:58.472Z,90.60
2018-12-16T15:04:27.567Z,90.50
2018-12-16T15:06:55.940Z,90.60
2018-12-16T15:09:24.261Z,90.50
2018-12-16T15:11:52.567Z,90.50
2018-12-16T15:14:20.858Z,90.50
2018-12-16T15:16:49.173Z,90.60
2018-12-16T15:19:17.522Z,90.60
2018-12-16T15:21:45.740Z,90.60
2018-12-16T15:24:14.075Z,90.70
2018-12-16T15:26:42.385Z,90.60
2018-12-16T15:29:10.595Z,90.70
2018-12-16T15:31:38.806Z,91.00
2018-12-16T15:34:07.044Z,90.70
2018-12-16T15:36:35.368Z,90.70
2018-12-16T15:41:49.458Z,91.10
2018-12-16T15:44:17.810Z,90.80
2018-12-16T15:46:46.088Z,90.90
2018-12-16T15:49:14.412Z,90.90
2018-12-16T15:51:42.751Z,90.90
2018-12-16T15:54:11.038Z,90.90
2018-12-16T15:56:39.247Z,91.00
2018-12-16T15:59:07.598Z,91.00
2018-12-16T16:01:35.810Z,91.00
2018-12-16T16:04:04.108Z,91.00
2018-12-16T16:06:32.327Z,91.10
2018-12-16T16:09:00.551Z,91.10
2018-12-16T16:11:28.819Z,91.00
2018-12-16T16:13:57.127Z,91.20
2018-12-16T16:16:25.372Z,91.10
2018-12-16T16:18:53.584Z,91.10
2018-12-16T16:21:23.504Z,91.20
2018-12-16T16:23:51.974Z,91.50
2018-12-16T16:26:20.183Z,92.40
2018-12-16T16:28:48.416Z,92.60
2018-12-16T16:31:16.679Z,92.60
2018-12-16T16:33:44.891Z,92.40
2018-12-16T16:36:13.115Z,92.40
2018-12-16T16:38:41.330Z,92.30
2018-12-16T16:41:09.738Z,92.10
2018-12-16T16:43:37.983Z,92.00
2018-12-16T16:46:06.271Z,91.90
2018-12-16T16:48:34.463Z,91.80
2018-12-16T16:51:02.791Z,91.90
2018-12-16T16:53:31.039Z,92.20
2018-12-16T16:55:59.250Z,92.10
2018-12-16T16:58:27.468Z,92.00
2018-12-16T17:00:55.726Z,92.10
2018-12-16T17:03:23.934Z,92.20
2018-12-16T17:05:52.174Z,92.00
2018-12-16T17:08:20.476Z,92.10
2018-12-16T17:10:48.767Z,92.10
2018-12-16T17:13:18.214Z,92.10
2018-12-16T17:15:46.427Z,92.10
2018-12-16T17:18:14.660Z,92.10
2018-12-16T17:20:42.874Z,92.30
2018-12-16T17:23:11.318Z,92.30
2018-12-16T17:25:39.709Z,92.20
2018-12-16T17:28:08.104Z,92.20
2018-12-16T17:30:36.370Z,92.20
2018-12-16T17:33:04.749Z,92.30
2018-12-16T17:35:32.980Z,92.20
2018-12-16T17:38:01.229Z,92.30
2018-12-16T17:40:29.546Z,92.30
2018-12-16T17:42:57.819Z,92.20
2018-12-16T17:45:26.092Z,92.10
2018-12-16T17:47:54.338Z,92.10
2018-12-16T17:50:22.539Z,92.10
2018-12-16T17:52:50.912Z,92.10
2018-12-16T17:55:19.168Z,92.10
2018-12-16T17:57:47.463Z,92.00
2018-12-16T18:00:15.802Z,92.10
2018-12-16T18:02:44.071Z,92.10
2018-12-16T18:05:12.374Z,92.10
2018-12-16T18:07:40.739Z,92.00
2018-12-16T18:10:09.034Z,92.10
2018-12-16T18:12:37.247Z,91.90
2018-12-16T18:15:08.794Z,91.80
2018-12-16T18:17:37.002Z,91.80
2018-12-16T18:20:08.027Z,91.80
2018-12-16T18:22:36.252Z,91.60
2018-12-16T18:25:04.662Z,91.70
2018-12-16T18:27:32.966Z,91.80
2018-12-16T18:30:01.227Z,91.80
2018-12-16T18:32:29.513Z,91.80
2018-12-16T18:34:57.747Z,91.80
2018-12-16T18:37:26.010Z,91.70
2018-12-16T18:39:54.355Z,91.80
2018-12-16T18:42:22.566Z,91.80
2018-12-16T18:44:50.880Z,91.80
2018-12-16T18:47:19.243Z,91.80
2018-12-16T18:49:47.467Z,91.80
2018-12-16T18:52:15.715Z,91.90
2018-12-16T18:54:44.017Z,92.00
2018-12-16T18:57:12.369Z,92.10
2018-12-16T18:59:40.685Z,92.20
2018-12-16T19:02:09.031Z,92.20
2018-12-16T19:04:37.315Z,92.10
2018-12-16T19:07:05.673Z,92.20
2018-12-16T19:09:33.935Z,92.20
2018-12-16T19:12:02.243Z,92.30
2018-12-16T19:14:30.909Z,92.30
2018-12-16T19:16:59.263Z,92.20
2018-12-16T19:19:27.816Z,92.40
2018-12-16T19:21:56.170Z,92.80
2018-12-16T19:24:24.385Z,92.10
2018-12-16T19:26:58.262Z,91.80
2018-12-16T19:29:22.893Z,91.80
2018-12-16T19:31:51.303Z,91.90
2018-12-16T19:34:19.522Z,91.70
2018-12-16T19:36:47.728Z,91.80
2018-12-16T19:39:15.981Z,91.90
2018-12-16T19:41:44.320Z,92.00
2018-12-16T19:44:12.622Z,92.10
2018-12-16T19:46:40.933Z,92.00
2018-12-16T19:49:09.274Z,92.00
2018-12-16T19:51:37.479Z,92.10
2018-12-16T19:54:05.808Z,92.20
2018-12-16T19:56:34.083Z,92.30
2018-12-16T19:59:02.747Z,92.50
2018-12-16T20:01:31.081Z,92.50
2018-12-16T20:04:05.096Z,92.40
2018-12-16T20:06:38.883Z,92.70
2018-12-16T20:09:07.435Z,92.70
2018-12-16T20:11:35.691Z,92.70
2018-12-16T20:14:04.235Z,92.50
2018-12-16T20:16:32.763Z,92.40
2018-12-16T20:19:01.077Z,92.30
2018-12-16T20:21:29.383Z,92.20
2018-12-16T20:23:57.718Z,92.10
2018-12-16T20:26:25.923Z,92.50
2018-12-16T20:28:54.184Z,92.20
2018-12-16T20:31:22.559Z,92.20
2018-12-16T20:33:50.882Z,92.20
2018-12-16T20:36:19.143Z,92.20
2018-12-16T20:38:47.534Z,92.40
2018-12-16T20:41:15.772Z,92.50
2018-12-16T20:43:44.216Z,92.50
2018-12-16T20:46:12.615Z,92.60
2018-12-16T20:48:40.899Z,92.60
2018-12-16T20:51:09.167Z,92.60
2018-12-16T20:53:37.615Z,92.70
2018-12-16T20:56:05.866Z,92.60
2018-12-16T20:58:34.149Z,92.60
2018-12-16T21:03:46.870Z,92.40
2018-12-16T21:06:15.570Z,92.40
2018-12-16T21:08:43.909Z,92.30
2018-12-16T21:11:17.599Z,92.30
2018-12-16T21:13:51.539Z,92.40
2018-12-16T21:16:25.461Z,92.40
2018-12-16T21:18:53.723Z,92.50
2018-12-16T21:21:22.042Z,92.40
2018-12-16T21:23:50.298Z,92.40
2018-12-16T21:26:18.658Z,92.40
2018-12-16T21:28:47.131Z,92.30
2018-12-16T21:31:15.365Z,92.30
2018-12-16T21:33:43.706Z,92.20
2018-12-16T21:36:11.926Z,92.50
2018-12-16T21:38:40.200Z,92.10
2018-12-16T21:41:08.486Z,92.10
2018-12-16T21:43:36.865Z,92.00
2018-12-16T21:46:05.152Z,92.00
2018-12-16T21:48:33.727Z,92.10
2018-12-16T21:51:01.958Z,92.10
2018-12-16T21:53:30.211Z,92.10
2018-12-16T21:55:58.471Z,92.00
2018-12-16T21:58:26.741Z,92.00
2018-12-16T22:00:54.955Z,92.20
2018-12-16T22:03:23.199Z,92.20
2018-12-16T22:05:51.455Z,92.20
2018-12-16T22:08:19.717Z,92.20
2018-12-16T22:10:48.209Z,92.30
2018-12-16T22:13:16.446Z,92.30
2018-12-16T22:15:44.667Z,92.30
2018-12-16T22:18:12.922Z,92.40
2018-12-16T22:20:41.163Z,92.30
2018-12-16T22:23:09.415Z,92.30
2018-12-16T22:25:38.338Z,92.40
2018-12-16T22:28:06.560Z,92.20
2018-12-16T22:30:35.018Z,92.30
2018-12-16T22:33:03.242Z,92.20
2018-12-16T22:35:31.566Z,92.10
2018-12-16T22:37:59.791Z,92.10
2018-12-16T22:40:28.407Z,92.10
2018-12-16T22:42:56.970Z,92.10
2018-12-16T22:45:26.207Z,92.10
2018-12-16T22:47:54.431Z,92.10
2018-12-16T22:50:22.863Z,92.10
2018-12-16T22:52:51.339Z,92.30
2018-12-16T22:55:19.607Z,92.30
2018-12-16T22:57:48.186Z,92.40
2018-12-16T23:00:17.518Z,92.50
2018-12-16T23:02:45.862Z,92.50
2018-12-16T23:05:14.110Z,92.50
2018-12-16T23:07:42.323Z,92.50
2018-12-16T23:10:10.538Z,92.60
2018-12-16T23:12:38.796Z,92.50
2018-12-16T23:15:07.259Z,92.30
2018-12-16T23:17:35.629Z,92.10
2018-12-16T23:20:10.695Z,92.10
2018-12-16T23:22:38.950Z,92.00
2018-12-16T23:25:07.468Z,92.00
2018-12-16T23:27:35.715Z,91.90
2018-12-16T23:30:05.911Z,91.80
2018-12-16T23:32:34.139Z,92.00
2018-12-16T23:35:02.577Z,91.90
2018-12-16T23:37:31.065Z,92.00
2018-12-16T23:39:59.527Z,92.00
2018-12-16T23:42:27.767Z,91.80
2018-12-16T23:44:56.078Z,91.80
2018-12-16T23:47:24.339Z,91.80
2018-12-16T23:49:52.788Z,91.80
2018-12-16T23:52:21.010Z,91.70
2018-12-16T23:54:49.756Z,91.60
2018-12-16T23:57:17.983Z,91.70
2018-12-16T23:59:46.364Z,91.60
